createdAt,value
2018-06-21T00:01:47.555Z,100.00
2018-06-21T00:04:16.417Z,100.00
2018-06-21T00:06:45.187Z,100.00
2018-06-21T00:09:13.975Z,100.00
2018-06-21T00:11:42.729Z,100.00
2018-06-21T00:14:11.434Z,100.00
2018-06-21T00:16:40.154Z,100.00
2018-06-21T00:19:08.874Z,100.00
2018-06-21T00:21:37.593Z,100.00
2018-06-21T00:24:06.402Z,100.00
2018-06-21T00:26:35.139Z,100.00
2018-06-21T00:29:03.877Z,99.07
2018-06-21T00:31:32.700Z,99.49
2018-06-21T00:34:01.427Z,98.83
2018-06-21T00:36:30.190Z,99.84
2018-06-21T00:38:58.906Z,99.32
2018-06-21T00:41:27.628Z,100.00
2018-06-21T00:43:56.332Z,99.66
2018-06-21T00:46:25.033Z,100.00
2018-06-21T00:48:53.894Z,98.17
2018-06-21T00:51:22.597Z,98.29
2018-06-21T00:53:51.326Z,98.38
2018-06-21T00:56:20.878Z,99.18
2018-06-21T00:58:50.258Z,99.71
2018-06-21T01:01:19.569Z,99.65
2018-06-21T01:03:48.806Z,100.00
2018-06-21T01:06:17.729Z,100.00
2018-06-21T01:08:46.451Z,99.89
2018-06-21T01:11:15.172Z,98.86
2018-06-21T01:13:43.917Z,99.58
2018-06-21T01:16:12.717Z,100.00
2018-06-21T01:18:41.438Z,99.29
2018-06-21T01:21:10.158Z,100.00
2018-06-21T01:23:38.866Z,100.00
2018-06-21T01:26:07.590Z,100.00
2018-06-21T01:28:36.319Z,100.00
2018-06-21T01:31:05.059Z,100.00
2018-06-21T01:33:33.757Z,100.00
2018-06-21T01:36:02.481Z,100.00
2018-06-21T01:38:31.299Z,100.00
2018-06-21T01:41:00.012Z,99.79
2018-06-21T01:43:28.718Z,99.34
2018-06-21T01:45:57.415Z,98.96
2018-06-21T01:48:26.133Z,98.47
2018-06-21T01:50:54.856Z,98.95
2018-06-21T01:53:23.573Z,99.14
2018-06-21T01:55:52.322Z,99.80
2018-06-21T01:58:21.037Z,98.53
2018-06-21T02:00:49.746Z,98.11
2018-06-21T02:03:18.462Z,98.41
2018-06-21T02:05:47.186Z,97.93
2018-06-21T02:08:15.894Z,98.58
2018-06-21T02:10:44.620Z,97.67
2018-06-21T02:13:13.330Z,98.67
2018-06-21T02:15:42.034Z,98.91
2018-06-21T02:18:10.742Z,99.09
2018-06-21T02:20:39.475Z,99.48
2018-06-21T02:23:08.208Z,99.57
2018-06-21T02:25:36.960Z,100.00
2018-06-21T02:28:05.722Z,100.00
2018-06-21T02:30:34.438Z,99.73
2018-06-21T02:33:03.163Z,100.00
2018-06-21T02:35:31.922Z,98.62
2018-06-21T02:38:00.644Z,98.70
2018-06-21T02:40:29.349Z,97.61
2018-06-21T02:42:58.078Z,98.51
2018-06-21T02:45:26.803Z,98.12
2018-06-21T02:47:55.596Z,97.02
2018-06-21T02:50:24.459Z,97.50
2018-06-21T02:52:53.185Z,98.03
2018-06-21T02:55:21.923Z,98.28
2018-06-21T02:57:50.694Z,98.16
2018-06-21T03:00:19.812Z,99.23
2018-06-21T03:02:48.607Z,99.25
2018-06-21T03:05:17.339Z,98.14
2018-06-21T03:07:46.084Z,97.91
2018-06-21T03:10:14.847Z,97.43
2018-06-21T03:12:43.680Z,96.84
2018-06-21T03:15:12.531Z,97.13
2018-06-21T03:17:41.299Z,97.40
2018-06-21T03:20:10.038Z,97.74
2018-06-21T03:22:38.802Z,96.19
2018-06-21T03:25:07.614Z,96.10
2018-06-21T03:27:36.387Z,95.99
2018-06-21T03:30:05.146Z,96.38
2018-06-21T03:32:33.900Z,97.30
2018-06-21T03:35:02.645Z,95.62
2018-06-21T03:37:31.411Z,95.54
2018-06-21T03:40:00.282Z,93.90
2018-06-21T03:42:29.070Z,93.03
2018-06-21T03:44:57.846Z,85.60
2018-06-21T03:47:26.581Z,79.06
2018-06-21T03:49:55.354Z,72.95
2018-06-21T03:52:24.103Z,67.48
2018-06-21T03:54:52.844Z,65.06
2018-06-21T03:57:21.559Z,64.04
2018-06-21T03:59:50.318Z,59.45
2018-06-21T04:02:19.103Z,57.89
2018-06-21T04:04:47.889Z,55.06
2018-06-21T04:07:16.618Z,54.87
2018-06-21T04:09:45.377Z,54.03
2018-06-21T04:12:14.111Z,54.36
2018-06-21T04:14:42.825Z,51.50
2018-06-21T04:17:11.529Z,47.12
2018-06-21T04:19:40.235Z,48.25
2018-06-21T04:22:09.003Z,47.15
2018-06-21T04:24:38.077Z,43.90
2018-06-21T04:27:06.893Z,41.75
2018-06-21T04:29:35.610Z,40.73
2018-06-21T04:32:04.330Z,39.81
2018-06-21T04:34:33.162Z,38.36
2018-06-21T04:37:01.984Z,39.26
2018-06-21T04:39:31.231Z,41.33
2018-06-21T04:42:00.230Z,41.00
2018-06-21T04:44:29.332Z,38.79
2018-06-21T04:46:58.630Z,38.82
2018-06-21T04:49:27.518Z,38.91
2018-06-21T04:51:56.270Z,39.22
2018-06-21T04:54:24.978Z,37.88
2018-06-21T04:56:53.682Z,39.22
2018-06-21T04:59:22.433Z,37.41
2018-06-21T05:01:51.554Z,36.16
2018-06-21T05:04:20.794Z,35.52
2018-06-21T05:06:49.624Z,35.89
2018-06-21T05:09:18.367Z,36.21
2018-06-21T05:11:47.111Z,35.41
2018-06-21T05:14:15.825Z,37.18
2018-06-21T05:16:44.540Z,36.96
2018-06-21T05:19:13.268Z,36.02
2018-06-21T05:21:42.116Z,35.34
2018-06-21T05:24:10.837Z,33.88
2018-06-21T05:26:39.566Z,35.17
2018-06-21T05:29:08.289Z,33.92
2018-06-21T05:44:10.233Z,33.87
2018-06-21T05:46:38.997Z,33.18
2018-06-21T05:49:07.714Z,30.67
2018-06-21T05:51:36.461Z,31.77
2018-06-21T05:54:05.207Z,34.01
2018-06-21T05:56:34.017Z,32.01
2018-06-21T05:59:02.826Z,31.87
2018-06-21T06:01:31.549Z,31.23
2018-06-21T06:04:00.285Z,31.42
2018-06-21T06:06:29.063Z,30.66
2018-06-21T06:08:57.833Z,32.45
2018-06-21T06:11:26.561Z,30.05
2018-06-21T06:13:55.290Z,30.79
2018-06-21T06:16:24.032Z,29.10
2018-06-21T06:18:52.781Z,31.24
2018-06-21T06:21:21.555Z,32.03
2018-06-21T06:23:50.442Z,29.12
2018-06-21T06:26:19.158Z,31.05
2018-06-21T06:28:47.872Z,29.05
2018-06-21T06:31:16.634Z,29.09
2018-06-21T06:33:45.379Z,31.14
2018-06-21T06:36:14.172Z,31.06
2018-06-21T06:38:42.968Z,30.46
2018-06-21T06:41:11.874Z,31.81
2018-06-21T06:43:40.609Z,28.81
2018-06-21T06:46:09.350Z,28.37
2018-06-21T06:48:38.182Z,28.07
2018-06-21T06:51:06.927Z,26.08
2018-06-21T06:53:35.762Z,27.09
2018-06-21T06:56:04.546Z,28.58
2018-06-21T06:58:33.346Z,27.07
2018-06-21T07:01:02.068Z,29.02
2018-06-21T07:03:30.802Z,30.94
2018-06-21T07:05:59.549Z,31.25
2018-06-21T07:08:28.421Z,30.69
2018-06-21T07:10:57.130Z,29.21
2018-06-21T07:13:25.862Z,29.63
2018-06-21T07:15:54.570Z,31.31
2018-06-21T07:18:23.293Z,31.37
2018-06-21T07:20:52.049Z,30.83
2018-06-21T07:23:20.886Z,30.89
2018-06-21T07:25:49.817Z,31.15
2018-06-21T07:28:18.537Z,30.08
2018-06-21T07:30:47.247Z,30.23
2018-06-21T07:33:16.013Z,32.11
2018-06-21T07:35:44.755Z,33.37
2018-06-21T07:38:13.725Z,29.99
2018-06-21T07:40:42.460Z,29.37
2018-06-21T07:43:11.227Z,33.58
2018-06-21T07:45:39.994Z,33.65
2018-06-21T07:48:08.727Z,32.37
2018-06-21T07:50:37.675Z,30.82
2018-06-21T07:53:06.447Z,28.82
2018-06-21T07:55:35.165Z,29.03
2018-06-21T07:58:03.869Z,29.17
2018-06-21T08:00:32.797Z,29.07
2018-06-21T08:03:01.513Z,29.97
2018-06-21T08:05:30.239Z,30.43
2018-06-21T08:07:59.031Z,30.63
2018-06-21T08:10:27.757Z,29.79
2018-06-21T08:12:56.496Z,28.10
2018-06-21T08:15:25.226Z,29.66
2018-06-21T08:17:53.966Z,29.50
2018-06-21T08:20:22.699Z,30.75
2018-06-21T08:22:51.440Z,31.33
2018-06-21T08:25:20.204Z,31.98
2018-06-21T08:27:49.018Z,31.16
2018-06-21T08:30:17.765Z,30.12
2018-06-21T08:32:47.482Z,28.24
2018-06-21T08:35:16.557Z,28.77
2018-06-21T08:37:45.323Z,26.79
2018-06-21T08:40:14.098Z,26.37
2018-06-21T08:42:42.865Z,29.88
2018-06-21T08:45:11.573Z,28.13
2018-06-21T08:47:40.298Z,29.46
2018-06-21T08:50:09.015Z,29.99
2018-06-21T08:52:37.728Z,30.15
2018-06-21T08:55:06.837Z,30.08
2018-06-21T08:57:35.652Z,26.47
2018-06-21T09:00:04.419Z,23.33
2018-06-21T09:02:33.566Z,24.57
2018-06-21T09:05:02.330Z,26.90
2018-06-21T09:20:31.035Z,24.10
2018-06-21T09:22:59.765Z,23.59
2018-06-21T09:25:28.511Z,24.53
2018-06-21T09:27:57.255Z,27.02
2018-06-21T09:30:25.981Z,24.49
2018-06-21T09:32:54.738Z,24.39
2018-06-21T09:35:23.455Z,24.35
2018-06-21T09:37:57.381Z,26.37
2018-06-21T09:40:31.254Z,25.20
2018-06-21T09:43:05.149Z,24.06
2018-06-21T09:45:38.930Z,25.87
2018-06-21T09:48:12.901Z,26.43
2018-06-21T09:50:41.642Z,24.79
2018-06-21T09:53:10.388Z,26.15
2018-06-21T09:55:39.100Z,25.38
2018-06-21T09:58:07.805Z,26.13
2018-06-21T10:00:41.947Z,26.16
2018-06-21T10:03:10.664Z,25.74
2018-06-21T10:05:39.389Z,26.15
2018-06-21T10:08:08.130Z,25.14
2018-06-21T10:10:36.871Z,24.72
2018-06-21T10:13:05.618Z,24.48
2018-06-21T10:15:34.992Z,23.51
2018-06-21T10:18:04.170Z,23.56
2018-06-21T10:20:33.593Z,24.37
2018-06-21T10:23:02.671Z,21.86
2018-06-21T10:25:31.534Z,23.17
2018-06-21T10:28:00.444Z,25.12
2018-06-21T10:30:29.232Z,25.15
2018-06-21T10:32:58.058Z,26.94
2018-06-21T10:35:26.855Z,26.06
2018-06-21T10:37:55.710Z,24.92
2018-06-21T10:40:24.546Z,24.52
2018-06-21T10:42:53.643Z,22.51
2018-06-21T10:45:22.560Z,24.52
2018-06-21T10:47:51.550Z,24.12
2018-06-21T10:50:20.403Z,22.68
2018-06-21T10:52:49.355Z,22.02
2018-06-21T10:55:18.083Z,21.04
2018-06-21T10:57:47.051Z,21.91
2018-06-21T11:00:15.869Z,19.67
2018-06-21T11:02:45.018Z,21.12
2018-06-21T11:05:13.899Z,22.00
2018-06-21T11:07:43.220Z,21.48
2018-06-21T11:10:13.622Z,23.60
2018-06-21T11:12:42.456Z,23.85
2018-06-21T11:15:11.150Z,24.38
2018-06-21T11:17:39.890Z,21.90
2018-06-21T11:20:09.436Z,22.45
2018-06-21T11:22:41.066Z,21.45
2018-06-21T11:25:09.796Z,21.61
2018-06-21T11:27:38.557Z,24.13
2018-06-21T11:30:07.616Z,24.28
2018-06-21T11:32:36.296Z,24.18
2018-06-21T11:35:05.047Z,20.64
2018-06-21T11:37:34.438Z,19.67
2018-06-21T11:40:03.180Z,21.60
2018-06-21T11:42:31.909Z,20.39
2018-06-21T11:45:00.625Z,20.47
2018-06-21T11:47:29.349Z,21.78
2018-06-21T11:49:58.070Z,20.63
2018-06-21T11:52:26.766Z,20.72
2018-06-21T11:54:55.498Z,20.63
2018-06-21T11:57:24.201Z,19.72
2018-06-21T11:59:52.969Z,21.21
2018-06-21T12:02:21.748Z,18.45
2018-06-21T12:04:50.434Z,20.30
2018-06-21T12:07:19.204Z,19.79
2018-06-21T12:09:47.905Z,20.33
2018-06-21T12:12:16.638Z,21.05
2018-06-21T12:14:45.441Z,20.45
2018-06-21T12:17:14.209Z,18.28
2018-06-21T12:19:42.905Z,16.92
2018-06-21T12:22:11.798Z,17.73
2018-06-21T12:24:40.540Z,16.94
2018-06-21T12:27:09.405Z,17.16
2018-06-21T12:29:38.239Z,18.56
2018-06-21T12:32:06.977Z,20.14
2018-06-21T12:34:35.726Z,17.82
2018-06-21T12:37:04.482Z,18.59
2018-06-21T12:39:33.253Z,21.51
2018-06-21T12:42:02.006Z,20.75
2018-06-21T12:44:30.740Z,21.03
2018-06-21T12:46:59.557Z,22.28
2018-06-21T12:49:28.331Z,22.06
2018-06-21T12:51:57.206Z,22.54
2018-06-21T12:54:26.194Z,21.93
2018-06-21T12:56:54.921Z,22.62
2018-06-21T12:59:23.643Z,23.95
2018-06-21T13:01:52.397Z,22.35
2018-06-21T13:04:21.225Z,22.35
2018-06-21T13:06:50.017Z,23.65
2018-06-21T13:09:31.549Z,23.78
2018-06-21T13:12:25.204Z,22.56
2018-06-21T13:14:54.335Z,24.59
2018-06-21T13:17:23.091Z,23.40
2018-06-21T13:19:51.847Z,21.69
2018-06-21T13:22:20.727Z,23.32
2018-06-21T13:24:49.477Z,23.03
2018-06-21T13:27:18.426Z,24.24
2018-06-21T13:29:47.126Z,25.73
2018-06-21T13:32:15.854Z,24.81
2018-06-21T13:34:44.553Z,24.63
2018-06-21T13:37:13.422Z,23.79
2018-06-21T13:39:42.204Z,24.94
2018-06-21T13:42:10.901Z,24.20
2018-06-21T13:44:39.614Z,25.44
2018-06-21T13:47:08.436Z,24.51
2018-06-21T13:49:37.161Z,25.46
2018-06-21T13:52:06.242Z,25.80
2018-06-21T13:57:08.771Z,39.24
2018-06-21T13:59:37.506Z,41.98
2018-06-21T14:02:06.278Z,42.82
2018-06-21T14:04:34.987Z,43.65
2018-06-21T14:07:03.679Z,43.82
2018-06-21T14:09:32.428Z,43.49
2018-06-21T14:12:01.143Z,44.82
2018-06-21T14:14:29.845Z,44.18
2018-06-21T14:16:58.541Z,44.56
2018-06-21T14:19:27.246Z,44.52
2018-06-21T14:21:56.476Z,45.21
2018-06-21T14:24:25.233Z,45.38
2018-06-21T14:26:53.921Z,45.18
2018-06-21T14:29:22.626Z,45.51
2018-06-21T14:31:51.310Z,44.10
2018-06-21T14:34:20.027Z,44.96
2018-06-21T14:36:48.726Z,44.77
2018-06-21T14:39:17.438Z,44.85
2018-06-21T14:41:46.341Z,44.75
2018-06-21T14:44:15.479Z,45.51
2018-06-21T14:46:44.252Z,43.89
2018-06-21T14:49:12.957Z,44.63
2018-06-21T14:51:41.661Z,43.35
2018-06-21T14:54:10.377Z,43.61
2018-06-21T14:56:39.130Z,43.85
2018-06-21T14:59:07.998Z,43.21
2018-06-21T15:01:36.847Z,44.04
2018-06-21T15:04:05.780Z,46.08
2018-06-21T15:06:34.857Z,43.92
2018-06-21T15:09:04.575Z,42.56
2018-06-21T15:11:33.133Z,43.52
2018-06-21T15:14:01.832Z,42.60
2018-06-21T15:16:30.525Z,42.82
2018-06-21T15:18:59.227Z,43.03
2018-06-21T15:21:27.966Z,43.32
2018-06-21T15:23:56.695Z,42.07
2018-06-21T15:26:25.442Z,41.57
2018-06-21T15:28:54.150Z,41.91
2018-06-21T15:31:22.922Z,41.33
2018-06-21T15:33:51.622Z,41.26
2018-06-21T15:36:20.375Z,42.54
2018-06-21T15:38:49.065Z,43.70
2018-06-21T15:41:17.753Z,44.38
2018-06-21T15:43:46.466Z,45.08
2018-06-21T15:46:15.163Z,45.65
2018-06-21T15:48:43.871Z,44.82
2018-06-21T15:51:12.578Z,45.18
2018-06-21T15:53:41.286Z,45.51
2018-06-21T15:56:10.050Z,43.90
2018-06-21T15:58:38.790Z,43.46
2018-06-21T16:01:07.567Z,43.46
2018-06-21T16:03:36.469Z,41.95
2018-06-21T16:06:05.332Z,42.01
2018-06-21T16:08:34.074Z,39.84
2018-06-21T16:11:02.778Z,41.44
2018-06-21T16:13:31.833Z,43.15
2018-06-21T16:16:00.734Z,44.71
2018-06-21T16:18:29.613Z,43.47
2018-06-21T16:20:58.330Z,44.92
2018-06-21T16:23:27.030Z,44.04
2018-06-21T16:25:55.722Z,45.16
2018-06-21T16:28:24.540Z,46.33
2018-06-21T16:30:53.149Z,46.42
2018-06-21T16:33:21.869Z,45.95
2018-06-21T16:35:50.550Z,47.40
2018-06-21T16:38:19.265Z,47.62
2018-06-21T16:40:48.035Z,48.17
2018-06-21T16:43:16.717Z,49.09
2018-06-21T16:45:45.437Z,48.82
2018-06-21T16:48:14.163Z,50.08
2018-06-21T16:50:42.871Z,49.64
2018-06-21T16:53:11.575Z,50.78
2018-06-21T16:55:40.306Z,50.81
2018-06-21T16:58:09.201Z,51.31
2018-06-21T17:00:37.911Z,51.94
2018-06-21T17:03:06.605Z,55.91
2018-06-21T17:05:35.356Z,57.35
2018-06-21T17:08:04.124Z,59.21
2018-06-21T17:10:32.877Z,60.07
2018-06-21T17:13:01.630Z,60.08
2018-06-21T17:15:30.326Z,60.58
2018-06-21T17:17:59.488Z,60.68
2018-06-21T17:20:28.510Z,62.06
2018-06-21T17:22:57.710Z,61.69
2018-06-21T17:25:26.813Z,62.51
2018-06-21T17:27:56.109Z,63.44
2018-06-21T17:30:25.239Z,64.11
2018-06-21T17:32:54.094Z,63.83
2018-06-21T17:35:23.306Z,64.54
2018-06-21T17:37:52.301Z,66.27
2018-06-21T17:40:21.591Z,65.30
2018-06-21T17:42:50.897Z,65.64
2018-06-21T17:45:19.963Z,65.93
2018-06-21T17:47:49.127Z,66.74
2018-06-21T17:50:18.323Z,66.73
2018-06-21T17:52:47.493Z,68.10
2018-06-21T17:55:16.556Z,71.49
2018-06-21T17:57:45.920Z,70.11
2018-06-21T18:00:15.007Z,68.44
2018-06-21T18:02:44.408Z,68.42
2018-06-21T18:05:13.569Z,69.67
2018-06-21T18:07:42.790Z,69.92
2018-06-21T18:10:11.753Z,71.71
2018-06-21T18:12:40.789Z,71.17
2018-06-21T18:15:09.957Z,71.07
2018-06-21T18:17:39.049Z,71.08
2018-06-21T18:20:08.220Z,71.44
2018-06-21T18:22:37.264Z,71.90
2018-06-21T18:25:06.447Z,72.97
2018-06-21T18:27:35.581Z,74.07
2018-06-21T18:30:04.738Z,74.87
2018-06-21T18:32:34.001Z,75.70
2018-06-21T18:35:03.338Z,75.74
2018-06-21T18:37:32.529Z,76.40
2018-06-21T18:40:01.733Z,77.37
2018-06-21T18:42:30.952Z,77.42
2018-06-21T18:45:00.161Z,78.67
2018-06-21T18:47:29.242Z,79.04
2018-06-21T18:49:58.320Z,80.01
2018-06-21T18:52:27.525Z,79.19
2018-06-21T18:54:56.732Z,81.41
2018-06-21T18:57:25.865Z,81.77
2018-06-21T18:59:55.125Z,82.22
2018-06-21T19:02:24.327Z,82.29
2018-06-21T19:04:53.631Z,83.75
2018-06-21T19:07:28.002Z,84.35
2018-06-21T19:10:02.524Z,84.38
2018-06-21T19:12:31.796Z,84.33
2018-06-21T19:15:00.943Z,82.81
2018-06-21T19:17:30.044Z,82.97
2018-06-21T19:19:59.097Z,83.88
2018-06-21T19:22:28.273Z,84.33
2018-06-21T19:24:57.452Z,85.21
2018-06-21T19:27:26.780Z,84.97
2018-06-21T19:29:55.830Z,85.06
2018-06-21T19:32:24.829Z,84.89
2018-06-21T19:34:53.879Z,84.85
2018-06-21T19:37:23.033Z,84.00
2018-06-21T19:39:52.253Z,82.37
2018-06-21T19:42:21.435Z,84.67
2018-06-21T19:44:50.453Z,84.97
2018-06-21T19:47:19.482Z,86.11
2018-06-21T19:49:48.729Z,85.87
2018-06-21T19:52:17.938Z,85.14
2018-06-21T19:54:47.163Z,85.05
2018-06-21T19:57:16.295Z,85.95
2018-06-21T19:59:45.504Z,88.41
2018-06-21T20:02:14.710Z,88.70
2018-06-21T20:04:43.890Z,90.27
2018-06-21T20:07:13.355Z,91.34
2018-06-21T20:09:42.393Z,92.07
2018-06-21T20:12:11.589Z,90.97
2018-06-21T20:14:40.809Z,91.15
2018-06-21T20:17:10.010Z,91.97
2018-06-21T20:19:44.436Z,92.37
2018-06-21T20:22:13.722Z,92.63
2018-06-21T20:24:42.797Z,92.00
2018-06-21T20:27:12.014Z,91.55
2018-06-21T20:29:41.201Z,91.75
2018-06-21T20:32:10.290Z,91.97
2018-06-21T20:34:39.385Z,92.65
2018-06-21T20:37:12.615Z,91.78
2018-06-21T20:39:41.877Z,94.51
2018-06-21T20:42:11.101Z,94.06
2018-06-21T20:44:40.314Z,94.54
2018-06-21T20:47:09.481Z,94.81
2018-06-21T20:49:38.681Z,94.07
2018-06-21T20:52:12.075Z,93.92
2018-06-21T20:54:41.400Z,94.78
2018-06-21T20:57:10.701Z,93.62
2018-06-21T20:59:40.078Z,94.03
2018-06-21T21:02:09.285Z,93.50
2018-06-21T21:05:16.269Z,92.53
2018-06-21T21:07:46.530Z,90.99
2018-06-21T21:10:16.625Z,91.74
2018-06-21T21:12:45.694Z,93.21
2018-06-21T21:15:15.357Z,92.26
2018-06-21T21:17:44.632Z,92.86
2018-06-21T21:20:13.901Z,92.50
2018-06-21T21:22:43.135Z,92.70
2018-06-21T21:25:12.298Z,92.23
2018-06-21T21:27:41.597Z,93.48
2018-06-21T21:30:10.883Z,93.35
2018-06-21T21:32:40.028Z,94.59
2018-06-21T21:35:09.201Z,95.54
2018-06-21T21:37:38.434Z,95.94
2018-06-21T21:40:08.113Z,95.82
2018-06-21T21:42:38.398Z,96.14
2018-06-21T21:45:07.666Z,96.09
2018-06-21T21:47:36.734Z,97.61
2018-06-21T21:50:05.922Z,96.83
2018-06-21T21:52:35.158Z,96.51
2018-06-21T21:55:04.363Z,96.87
2018-06-21T21:57:33.516Z,99.01
2018-06-21T22:00:02.718Z,97.70
2018-06-21T22:02:32.009Z,96.18
2018-06-21T22:05:01.307Z,97.06
2018-06-21T22:07:30.642Z,97.13
2018-06-21T22:09:59.714Z,96.99
2018-06-21T22:12:28.914Z,97.17
2018-06-21T22:14:58.110Z,97.63
2018-06-21T22:17:27.323Z,98.30
2018-06-21T22:19:56.325Z,98.19
2018-06-21T22:22:25.381Z,98.15
2018-06-21T22:24:54.609Z,99.45
2018-06-21T22:27:23.810Z,98.73
2018-06-21T22:29:52.993Z,98.36
2018-06-21T22:32:22.229Z,97.36
2018-06-21T22:34:51.401Z,96.33
2018-06-21T22:37:20.384Z,96.46
2018-06-21T22:39:49.606Z,96.81
2018-06-21T22:42:18.773Z,96.61
2018-06-21T22:44:48.025Z,95.87
2018-06-21T22:47:17.193Z,96.52
2018-06-21T22:49:46.390Z,97.41
2018-06-21T22:52:15.594Z,97.36
2018-06-21T22:54:44.774Z,97.71
2018-06-21T22:57:13.969Z,97.55
2018-06-21T22:59:43.170Z,97.98
2018-06-21T23:02:12.375Z,97.99
2018-06-21T23:04:41.339Z,97.41
2018-06-21T23:07:10.450Z,97.17
2018-06-21T23:09:39.650Z,97.13
2018-06-21T23:12:08.741Z,97.68
2018-06-21T23:14:37.948Z,98.36
2018-06-21T23:17:07.135Z,98.34
2018-06-21T23:19:36.480Z,99.07
2018-06-21T23:22:05.641Z,98.49
2018-06-21T23:24:34.868Z,98.83
2018-06-21T23:27:04.139Z,98.21
2018-06-21T23:29:33.233Z,98.46
2018-06-21T23:32:02.541Z,98.58
2018-06-21T23:34:31.733Z,98.46
2018-06-21T23:37:00.867Z,97.59
2018-06-21T23:39:29.797Z,98.24
2018-06-21T23:41:58.920Z,96.92
2018-06-21T23:44:28.145Z,97.27
2018-06-21T23:46:57.319Z,97.85
2018-06-21T23:49:26.519Z,98.72
2018-06-21T23:51:55.716Z,99.04
2018-06-21T23:54:24.946Z,98.28
2018-06-21T23:56:54.101Z,98.40
2018-06-21T23:59:22.788Z,98.87
